AirNav   TITAN Aviation Fuels
 
 1156 users online  

3VA3 Flying Circus Aerodrome
Warrenton, Virginia, USA

GOING TO WARRENTON?


FAA INFORMATION EFFECTIVE 22 APRIL 2021

Location

FAA Identifier: 3VA3
Lat/Long: 38-33-01.4450N 077-42-56.9680W
38-33.024083N 077-42.949467W
38.5504014,-77.7158244
(estimated)
Elevation: 315 ft. / 96 m (estimated)
Variation: 09W (1985)
From city: 10 miles SE of WARRENTON, VA
Time zone: UTC -4 (UTC -5 during Standard Time)
Zip code: 22728

Airport Operations

Airport use: Private use. Permission required prior to landing
Activation date: 11/1972
Control tower: no
ARTCC: WASHINGTON CENTER
FSS: LEESBURG FLIGHT SERVICE STATION
Attendance: MON-FRI 0900-1700
Wind indicator: yes
Segmented circle: yes

Airport Communications

WX AWOS-3 at HWY (2.2 nm N): 120.350 (540-788-4078)
WX AWOS-3 at CJR (7 nm W): 119.325 (540-727-0523)
WX AWOS-3PT at HEF (14 nm NE): PHONE 703-361-6160
WX AWOS-3 at RMN (15 nm SE): 126.325 (540-657-8283)

Nearby radio navigation aids

VOR radial/distance  VOR name  Freq  Var
CSNr134/8.9CASANOVA VORTAC116.3006W
BRVr316/21.4BROOKE VORTAC114.5009W
AMLr215/25.8ARMEL VOR/DME113.5008W
LDNr134/29.3LINDEN VORTAC114.3006W
DCAr249/36.8WASHINGTON VOR/DME111.0009W
GVEr039/38.2GORDONSVILLE VORTAC115.6006W

 
NDB name  Hdg/Dist  Freq  Var  ID
NAILR067/10.635110WMSQ -- ... --.-
SHANNON334/21.123710WEZF . --.. ..-.
DAVEE266/29.222309WDAA -.. .- .-
OXONN259/34.833211WDCA -.. -.-. .-
GEORGETOWN240/35.832309WGTN --. - -.
CAVERNS113/36.624509WLUA .-.. ..- .-

Airport Services

Airframe service: NONE
Powerplant service: NONE

Runway Information

Runway 16/34

Dimensions: 2500 x 150 ft. / 762 x 46 m
Surface: turf
RUNWAY 16  RUNWAY 34
Traffic pattern: rightleft

Runway 2/20

Dimensions: 2000 x 150 ft. / 610 x 46 m
Surface: turf
RUNWAY 2  RUNWAY 20
Traffic pattern: leftright

Airport Ownership and Management from official FAA records

Ownership: Privately-owned
Owner: FLYING CIRCUS AIRSHOWS INC
P.O. BOX 99
BEALTON, VA 22712
Phone 703-439-8661
Manager: JOHN CORRADI
P.O. BOX 99
BEALETON, VA 22712
Phone 540-718-3717

Airport Operational Statistics

Aircraft based on the field: 10
Single engine airplanes: 10
    

Additional Remarks

THIS FIELD FOR FLYING CIRCUS AERO INC; PRIVATE-AIRSHOW.
UNMRKD/UNLGTD TREES & PLINES.
FOR CD CTC POTOMAC APCH AT 866-709-4993.

Instrument Procedures

There are no published instrument procedures at 3VA3.

Some nearby airports with instrument procedures:

KHWY - Warrenton-Fauquier Airport (2 nm N)
KCJR - Culpeper Regional Airport (7 nm W)
KHEF - Manassas Regional Airport/Harry P. Davis Field (14 nm NE)
KRMN - Stafford Regional Airport (15 nm SE)
KNYG - Quantico Marine Corps Airfield / Turner Field (19 nm E)
 
Loc | Ops | Rwys | IFR | FBO | Links
Com | Nav | Svcs | Stats | Notes
Area around 3VA3 (Flying Circus Aerodrome)
 
Road maps at: MapQuest Bing Google
 
Aerial photo
No photo
 
Sectional chart

 
Airport distance calculator
Flying to Flying Circus Aerodrome? Find the distance to fly.

From to 3VA3

Sunrise and sunset
Times for 16-May-2021
 Local
(UTC-4)
 Zulu
(UTC)
Morning civil twilight05:2909:29
Sunrise05:5909:59
Sunset20:1500:15
Evening civil twilight20:4500:45

Current date and time
Zulu (UTC)  17-May-2021 00:55:55
Local (UTC-4)  16-May-2021 20:55:55
 
METAR
KHWY 
2nm N 
170035Z AUTO 05003KT 10SM OVC080 15/10 A3025 RMK AO2 T01500096
KHEF 
14nm NE 
162356Z 04005KT 10SM OVC070 16/11 A3026 RMK AO2 SLP252 T01560106 10200 20156 50000
KRMN 
15nm SE 
162335Z AUTO 00000KT 10SM OVC080 17/04 A3028 RMK AO2 T01680043
KCJR 
20nm W 
170035Z AUTO 00000KT 10SM SCT080 13/10 A3026 RMK AO2 T01300102
TAF
NOTAMs
Click for the latest NOTAMs
NOTAMs are issued by the DoD/FAA and will open in a separate window not controlled by AirNav.

 

 
 

Where to Eat: Catering, Restaurants, Food shops

  
 Business Name 
 
 Contact 
 
 Services / Description 
 
Distance
 
Comments
  
Fifi's Airfield Cafe no information available

If you are affiliated with Fifi's Airfield Cafe and would like to show here your services, contact info, web link, logo, and more, click here
on airport  
   write
 

Would you like to see your business listed on this page?

 If your business provides an interesting product or service to pilots, flight crews, aircraft, or users of the Flying Circus Aerodrome, you should consider listing it here.  To start the listing process, click on the button below
 
Add a business
 

Other Pages about Flying Circus Aerodrome

Update a link
 
Copyright © AirNav, LLC. All rights reserved. Privacy Policy  Contact